createdAt,value
2022-11-22T00:00:59.241Z,11.6
2022-11-22T00:01:59.480Z,10.6
2022-11-22T00:02:59.967Z,10
2022-11-22T00:04:00.470Z,10.1
2022-11-22T00:05:00.683Z,11.5
2022-11-22T00:06:00.966Z,12.1
2022-11-22T00:07:01.540Z,10.7
2022-11-22T00:08:02.032Z,10.9
2022-11-22T00:09:02.148Z,10.4
2022-11-22T00:10:02.807Z,10.5
2022-11-22T00:11:02.975Z,9.9
2022-11-22T00:12:03.497Z,10.8
2022-11-22T00:13:04.016Z,11.5
2022-11-22T00:14:04.052Z,10.5
2022-11-22T00:15:05.773Z,10.6
2022-11-22T00:16:05.681Z,11.4
2022-11-22T00:17:05.370Z,11.6
2022-11-22T00:18:06.026Z,10
2022-11-22T00:19:06.510Z,10
2022-11-22T00:20:09.076Z,10
2022-11-22T00:21:08.281Z,9.9
2022-11-22T00:22:07.355Z,9.5
2022-11-22T00:23:07.996Z,10.2
2022-11-22T00:24:08.598Z,9.9
2022-11-22T00:25:09.727Z,12.3
2022-11-22T00:26:09.126Z,11
2022-11-22T00:27:10.345Z,11.1
2022-11-22T00:28:10.057Z,10.4
2022-11-22T00:29:10.473Z,10.7
2022-11-22T00:30:11.295Z,10.6
2022-11-22T00:31:10.998Z,10.8
2022-11-22T00:32:11.409Z,10.9
2022-11-22T00:33:11.848Z,9.9
2022-11-22T00:34:12.349Z,10.1
2022-11-22T00:35:13.372Z,11
2022-11-22T00:36:12.980Z,10
2022-11-22T00:37:13.395Z,9.7
2022-11-22T00:38:13.919Z,11.5
2022-11-22T00:39:14.330Z,10.4
2022-11-22T00:40:14.779Z,9.9
2022-11-22T00:41:14.951Z,9.6
2022-11-22T00:42:15.371Z,10.7
2022-11-22T00:43:15.902Z,10.4
2022-11-22T00:44:16.219Z,11.9
2022-11-22T00:45:16.828Z,9.9
2022-11-22T00:46:16.928Z,10.5
2022-11-22T00:47:17.134Z,9.1
2022-11-22T00:48:17.553Z,9.5
2022-11-22T00:49:18.086Z,11.3
2022-11-22T00:50:18.704Z,10.1
2022-11-22T00:51:19.426Z,10.5
2022-11-22T00:52:19.430Z,11
2022-11-22T00:53:20.148Z,11
2022-11-22T00:54:20.256Z,11.1
2022-11-22T00:55:20.474Z,10.2
2022-11-22T00:56:20.992Z,8.8
2022-11-22T00:57:21.306Z,10.4
2022-11-22T00:58:21.609Z,8.6
2022-11-22T00:59:22.139Z,9.8
2022-11-22T01:00:22.759Z,9.2
2022-11-22T01:01:23.074Z,9.4
2022-11-22T01:02:23.012Z,8.8
2022-11-22T01:03:23.591Z,9.3
2022-11-22T01:04:24.119Z,10.2
2022-11-22T01:05:24.627Z,8.9
2022-11-22T01:06:25.452Z,9.9
2022-11-22T01:07:26.037Z,10.8
2022-11-22T01:08:26.389Z,9.7
2022-11-22T01:09:27.052Z,10.2
2022-11-22T01:10:27.426Z,10.2
2022-11-22T01:11:27.749Z,10.7
2022-11-22T01:12:27.858Z,9.8
2022-11-22T01:13:29.707Z,9.2
2022-11-22T01:14:28.996Z,8.6
2022-11-22T01:15:29.825Z,9.3
2022-11-22T01:16:29.716Z,9.2
2022-11-22T01:17:29.935Z,9.9
2022-11-22T01:18:30.757Z,8.7
2022-11-22T01:19:31.290Z,9
2022-11-22T01:20:31.489Z,10.4
2022-11-22T01:21:31.494Z,10.1
2022-11-22T01:22:32.020Z,9.8
2022-11-22T01:23:32.632Z,9
2022-11-22T01:24:32.945Z,9.2
2022-11-22T01:25:33.367Z,9.6
2022-11-22T01:26:34.400Z,9.7
2022-11-22T01:27:33.887Z,9.9
2022-11-22T01:28:34.420Z,9.4
2022-11-22T01:29:34.830Z,10.9
2022-11-22T01:30:35.445Z,8.2
2022-11-22T01:31:35.537Z,10
2022-11-22T01:32:35.977Z,9.9
2022-11-22T01:33:36.487Z,9.7
2022-11-22T01:34:36.798Z,8.7
2022-11-22T01:35:37.215Z,10
2022-11-22T01:36:37.449Z,10.2
2022-11-22T01:37:37.850Z,8.6
2022-11-22T01:38:38.182Z,8.7
2022-11-22T01:39:38.787Z,9.1
2022-11-22T01:40:39.297Z,9
2022-11-22T01:41:39.519Z,10.1
2022-11-22T01:43:40.856Z,8.8
2022-11-22T01:44:42.811Z,9.6
2022-11-22T01:45:44.253Z,9.2
2022-11-22T01:46:43.037Z,8.8
2022-11-22T01:47:42.545Z,8.7
2022-11-22T01:48:53.386Z,9.8
2022-11-22T01:49:54.733Z,9.2
2022-11-22T01:50:52.377Z,9
2022-11-22T01:51:54.630Z,9.8
2022-11-22T01:52:53.619Z,8.4
2022-11-22T01:53:55.257Z,7.7
2022-11-22T01:55:04.683Z,10.3
2022-11-22T01:56:00.104Z,8.7
2022-11-22T01:57:03.772Z,9.5
2022-11-22T01:58:02.455Z,8.4
2022-11-22T01:59:08.100Z,10.3
2022-11-22T02:00:09.947Z,8.5
2022-11-22T02:01:08.476Z,8.4
2022-11-22T02:02:08.420Z,9.6
2022-11-22T02:03:11.599Z,9.6
2022-11-22T02:04:13.138Z,8.3
2022-11-22T02:05:15.604Z,11.2
2022-11-22T02:06:14.394Z,8.7
2022-11-22T02:07:25.836Z,8.1
2022-11-22T02:09:23.321Z,7.8
2022-11-22T02:10:25.666Z,8.2
2022-11-22T02:11:29.627Z,8.3
2022-11-22T02:12:29.792Z,8.8
2022-11-22T02:13:28.659Z,7.3
2022-11-22T02:14:28.565Z,7.8
2022-11-22T02:15:28.377Z,8.1
2022-11-22T02:16:29.088Z,8.7
2022-11-22T02:17:29.929Z,8.2
2022-11-22T02:18:29.617Z,8.4
2022-11-22T02:20:33.639Z,8
2022-11-22T02:21:34.051Z,8.2
2022-11-22T02:26:41.556Z,8.7
2022-11-22T02:27:42.486Z,7.5
2022-11-22T02:28:42.487Z,8.1
2022-11-22T02:29:43.519Z,6.4
2022-11-22T02:30:43.318Z,7.1
2022-11-22T02:31:46.271Z,8.9
2022-11-22T02:32:44.661Z,7.5
2022-11-22T02:33:44.668Z,7.5
2022-11-22T02:34:46.927Z,7.6
2022-11-22T02:35:46.008Z,7.8
2022-11-22T02:38:50.842Z,8.3
2022-11-22T02:41:57.427Z,7.6
2022-11-22T02:43:57.853Z,6.7
2022-11-22T02:44:57.740Z,7.2
2022-11-22T02:46:07.681Z,8.3
2022-11-22T02:47:00.731Z,7.6
2022-11-22T02:48:11.994Z,6.6
2022-11-22T02:49:05.048Z,7
2022-11-22T02:50:06.087Z,7.5
2022-11-22T02:51:05.672Z,7.7
2022-11-22T02:52:05.959Z,7.6
2022-11-22T02:53:08.249Z,7.5
2022-11-22T02:54:07.217Z,6.5
2022-11-22T02:55:07.959Z,6.8
2022-11-22T02:56:07.647Z,7.3
2022-11-22T02:57:08.093Z,7
2022-11-22T02:58:08.798Z,7.6
2022-11-22T02:59:08.997Z,6.9
2022-11-22T03:00:10.538Z,8.5
2022-11-22T03:01:09.690Z,7.4
2022-11-22T03:02:10.041Z,7.3
2022-11-22T03:03:10.462Z,8.1
2022-11-22T03:04:10.567Z,7
2022-11-22T03:05:11.398Z,7.6
2022-11-22T03:06:11.704Z,8.5
2022-11-22T03:07:12.155Z,8.4
2022-11-22T03:08:12.433Z,8.5
2022-11-22T03:09:12.852Z,7.8
2022-11-22T03:10:13.264Z,9.3
2022-11-22T03:11:13.687Z,7.6
2022-11-22T03:12:14.023Z,7.5
2022-11-22T03:13:14.527Z,7
2022-11-22T03:14:17.401Z,6.4
2022-11-22T03:15:15.873Z,6.4
2022-11-22T03:16:15.966Z,8
2022-11-22T03:17:17.616Z,6.4
2022-11-22T03:18:16.603Z,7.5
2022-11-22T03:19:17.121Z,6.5
2022-11-22T03:20:17.734Z,6.3
2022-11-22T03:21:17.741Z,7.4
2022-11-22T03:22:17.961Z,7.2
2022-11-22T03:23:18.674Z,7.1
2022-11-22T03:24:19.091Z,7.2
2022-11-22T03:25:19.510Z,7
2022-11-22T03:26:19.822Z,6.6
2022-11-22T03:27:20.138Z,6.8
2022-11-22T03:28:20.669Z,6.1
2022-11-22T03:29:21.175Z,7.6
2022-11-22T03:30:21.397Z,6.6
2022-11-22T03:31:21.705Z,7.4
2022-11-22T03:32:22.224Z,6.1
2022-11-22T03:33:22.537Z,7.4
2022-11-22T03:34:22.948Z,6
2022-11-22T03:35:23.362Z,5.3
2022-11-22T03:36:24.200Z,6
2022-11-22T03:37:24.200Z,6.6
2022-11-22T03:38:24.615Z,6.8
2022-11-22T03:39:25.437Z,5.9
2022-11-22T03:40:25.245Z,5.8
2022-11-22T03:41:25.867Z,5.8
2022-11-22T03:42:26.176Z,5.3
2022-11-22T03:43:26.263Z,4.9
2022-11-22T03:44:26.906Z,5.9
2022-11-22T03:45:27.525Z,5.8
2022-11-22T03:46:27.633Z,5.7
2022-11-22T03:47:28.254Z,6
2022-11-22T03:48:28.465Z,6.1
2022-11-22T03:49:29.066Z,5.9
2022-11-22T03:50:29.299Z,6.7
2022-11-22T03:51:29.611Z,6.1
2022-11-22T03:52:29.829Z,6.4
2022-11-22T03:53:30.348Z,5.1
2022-11-22T03:54:30.778Z,7.3
2022-11-22T03:55:31.178Z,5.1
2022-11-22T03:56:31.593Z,5.6
2022-11-22T03:57:31.806Z,5.3
2022-11-22T03:58:32.641Z,5.7
2022-11-22T03:59:32.974Z,4.8
2022-11-22T04:00:33.458Z,7
2022-11-22T04:01:33.627Z,5.1
2022-11-22T04:02:33.900Z,6
2022-11-22T04:03:34.529Z,5.1
2022-11-22T04:04:34.620Z,6.2
2022-11-22T04:05:35.045Z,5.9
2022-11-22T04:06:35.240Z,7.5
2022-11-22T04:07:35.741Z,5.9
2022-11-22T04:08:36.442Z,6.9
2022-11-22T04:09:36.705Z,4.6
2022-11-22T04:10:36.904Z,6.4
2022-11-22T04:11:37.326Z,6.3
2022-11-22T04:12:37.848Z,6
2022-11-22T04:13:38.166Z,5.9
2022-11-22T04:14:38.573Z,6.5
2022-11-22T04:15:38.994Z,6.8
2022-11-22T04:16:39.202Z,6.3
2022-11-22T04:17:41.156Z,5.5
2022-11-22T04:18:39.936Z,5.3
2022-11-22T04:19:40.447Z,5.5
2022-11-22T04:20:41.682Z,7.3
2022-11-22T04:21:41.184Z,5.2
2022-11-22T04:22:41.499Z,5.2
2022-11-22T04:23:42.208Z,6.4
2022-11-22T04:24:42.432Z,6.2
2022-11-22T04:25:46.938Z,5.8
2022-11-22T04:26:44.896Z,6.7
2022-11-22T04:27:45.319Z,4.5
2022-11-22T04:29:08.752Z,5.2
2022-11-22T04:29:48.295Z,4.8
2022-11-22T04:30:50.246Z,6.3
2022-11-22T04:31:50.369Z,6.6
2022-11-22T04:32:49.447Z,6
2022-11-22T04:33:50.168Z,4.4
2022-11-22T04:34:50.070Z,5.6
2022-11-22T04:35:51.207Z,4.4
2022-11-22T04:36:50.910Z,6.6
2022-11-22T04:37:52.248Z,4.7
2022-11-22T04:38:51.854Z,5.3
2022-11-22T04:39:52.255Z,5.7
2022-11-22T04:40:52.908Z,4.9
2022-11-22T04:42:55.041Z,4.9
2022-11-22T04:43:55.455Z,4.6
2022-11-22T04:44:55.873Z,5.1
2022-11-22T04:45:56.389Z,5.4
2022-11-22T04:46:56.710Z,5
2022-11-22T04:47:57.026Z,4.7
2022-11-22T04:48:57.541Z,4.5
2022-11-22T04:49:57.958Z,4.7
2022-11-22T04:50:58.277Z,5
2022-11-22T04:51:58.581Z,5.1
2022-11-22T04:52:59.113Z,4.4
2022-11-22T04:53:59.316Z,4.3
2022-11-22T04:54:59.458Z,4.5
2022-11-22T04:56:00.247Z,4.5
2022-11-22T04:57:00.549Z,5.9
2022-11-22T04:58:00.767Z,4.6
2022-11-22T04:59:01.491Z,4.7
2022-11-22T05:00:01.717Z,5
2022-11-22T05:01:02.184Z,4.9
2022-11-22T05:02:02.449Z,4.4
2022-11-22T05:03:03.974Z,4.7
2022-11-22T05:04:03.261Z,4.1
2022-11-22T05:05:03.695Z,4.8
2022-11-22T05:06:05.735Z,4.5
2022-11-22T05:07:04.284Z,4.2
2022-11-22T05:08:06.160Z,5.1
2022-11-22T05:09:05.965Z,4.5
2022-11-22T05:10:06.177Z,4.3
2022-11-22T05:11:05.867Z,4.2
2022-11-22T05:12:07.003Z,4.7
2022-11-22T05:13:06.714Z,4.6
2022-11-22T05:14:07.122Z,5.5
2022-11-22T05:15:07.872Z,5.6
2022-11-22T05:16:10.821Z,4.9
2022-11-22T05:17:12.910Z,4.5
2022-11-22T05:18:11.241Z,4
2022-11-22T05:19:11.768Z,5.4
2022-11-22T05:20:12.497Z,4.2
2022-11-22T05:21:14.860Z,4.7
2022-11-22T05:22:13.414Z,4.8
2022-11-22T05:23:14.755Z,5
2022-11-22T05:24:14.481Z,5.4
2022-11-22T05:25:14.979Z,5.6
2022-11-22T05:26:15.185Z,6
2022-11-22T05:27:15.319Z,5.2
2022-11-22T05:28:15.803Z,5.1
2022-11-22T05:29:16.130Z,5.1
2022-11-22T05:30:16.856Z,4.7
2022-11-22T05:32:21.269Z,4.4
2022-11-22T05:33:21.582Z,5.2
2022-11-22T05:34:21.989Z,5.5
2022-11-22T05:35:23.254Z,5
2022-11-22T05:36:24.917Z,5.1
2022-11-22T05:37:24.081Z,4.7
2022-11-22T05:38:24.287Z,4.5
2022-11-22T05:39:24.687Z,4.1
2022-11-22T05:40:25.625Z,4.8
2022-11-22T05:41:25.936Z,5.3
2022-11-22T05:42:26.038Z,5.5
2022-11-22T05:43:26.252Z,4.9
2022-11-22T05:44:26.565Z,4.3
2022-11-22T05:45:27.320Z,5.5
2022-11-22T05:46:29.549Z,4.3
2022-11-22T05:47:27.816Z,4.2
2022-11-22T05:48:28.261Z,4.8
2022-11-22T05:49:28.945Z,4.7
2022-11-22T05:50:28.961Z,4.8
2022-11-22T05:51:34.108Z,4.5
2022-11-22T05:52:33.295Z,6.1
2022-11-22T05:53:33.318Z,6.3
2022-11-22T05:54:33.806Z,5.2
2022-11-22T05:55:34.226Z,5.4
2022-11-22T05:56:34.644Z,5.3
2022-11-22T05:57:34.996Z,18.1
2022-11-22T05:58:35.667Z,6.1
2022-11-22T05:59:39.839Z,6.1
2022-11-22T06:00:40.596Z,6.9
2022-11-22T06:01:41.156Z,4.6
2022-11-22T06:02:41.443Z,5.2
2022-11-22T06:03:42.162Z,5.1
2022-11-22T06:04:42.159Z,6.2
2022-11-22T06:05:42.477Z,5.8
2022-11-22T06:06:42.890Z,5
2022-11-22T06:07:43.207Z,5.5
2022-11-22T06:08:45.089Z,4.4
2022-11-22T06:09:44.143Z,4.9
2022-11-22T06:10:44.352Z,3.8
2022-11-22T06:11:44.776Z,4.9
2022-11-22T06:12:45.292Z,5.2
2022-11-22T06:13:46.965Z,5.1
2022-11-22T06:14:46.532Z,4.5
2022-11-22T06:15:46.335Z,5.6
2022-11-22T06:16:46.786Z,5.3
2022-11-22T06:17:47.163Z,3.9
2022-11-22T06:18:48.002Z,4
2022-11-22T06:19:47.999Z,5.8
2022-11-22T06:20:48.203Z,5.1
2022-11-22T06:21:48.619Z,5.2
2022-11-22T06:22:49.139Z,6.3
2022-11-22T06:23:49.558Z,6.9
2022-11-22T06:24:50.178Z,4.8
2022-11-22T06:26:54.394Z,6
2022-11-22T06:27:54.808Z,6.4
2022-11-22T06:28:55.639Z,5.6
2022-11-22T06:29:55.544Z,4.1
2022-11-22T06:32:03.504Z,4.1
2022-11-22T06:33:02.019Z,8.7
2022-11-22T06:34:02.431Z,8.5
2022-11-22T06:35:04.066Z,5.7
2022-11-22T06:37:05.422Z,5.3
2022-11-22T06:38:05.936Z,4.3
2022-11-22T06:39:07.079Z,4.6
2022-11-22T06:40:07.686Z,3.8
2022-11-22T06:41:09.247Z,8.3
2022-11-22T06:42:07.704Z,6.8
2022-11-22T06:43:07.908Z,4.6
2022-11-22T06:44:09.983Z,5.9
2022-11-22T06:45:09.473Z,4.2
2022-11-22T06:46:10.506Z,4.5
2022-11-22T06:47:09.272Z,5
2022-11-22T06:48:09.887Z,4.1
2022-11-22T06:49:10.302Z,3.5
2022-11-22T06:50:10.924Z,5.3
2022-11-22T06:51:19.467Z,5.1
2022-11-22T06:52:12.587Z,4.8
2022-11-22T06:53:32.295Z,6
2022-11-22T06:54:15.866Z,5
2022-11-22T06:55:42.417Z,5.6
2022-11-22T06:57:21.217Z,4.1
2022-11-22T06:58:21.557Z,3.8
2022-11-22T06:59:21.985Z,5.5
2022-11-22T07:00:22.873Z,4.7
2022-11-22T07:02:26.159Z,4.5
2022-11-22T07:03:26.583Z,4.2
2022-11-22T07:04:26.888Z,4.1
2022-11-22T07:05:26.998Z,5
2022-11-22T07:06:31.216Z,5.6
2022-11-22T07:07:29.340Z,6.2
2022-11-22T07:08:29.575Z,7.1
2022-11-22T07:09:30.233Z,5.5
2022-11-22T07:10:30.425Z,5.9
2022-11-22T07:11:32.365Z,6.3
2022-11-22T07:12:31.048Z,5.4
2022-11-22T07:13:32.067Z,6.7
2022-11-22T07:14:32.080Z,5
2022-11-22T07:15:32.909Z,9
2022-11-22T07:16:34.247Z,8
2022-11-22T07:17:34.254Z,7.4
2022-11-22T07:18:35.391Z,4.1
2022-11-22T07:19:35.289Z,4.1
2022-11-22T07:20:35.710Z,6.7
2022-11-22T07:21:36.014Z,7.6
2022-11-22T07:22:36.223Z,5.9
2022-11-22T07:23:36.954Z,5.8
2022-11-22T07:24:37.168Z,5.5
2022-11-22T07:25:37.370Z,4.2
2022-11-22T07:26:38.023Z,5
2022-11-22T07:27:38.409Z,5.3
2022-11-22T07:28:38.620Z,4.2
2022-11-22T07:29:39.141Z,3.9
2022-11-22T07:30:43.805Z,4.6
2022-11-22T07:31:42.128Z,4.7
2022-11-22T07:32:42.227Z,4.2
2022-11-22T07:33:43.787Z,3
2022-11-22T07:34:43.372Z,3.1
2022-11-22T07:35:43.780Z,3.8
2022-11-22T07:36:44.200Z,4.6
2022-11-22T07:37:44.427Z,4.7
2022-11-22T07:38:45.247Z,4.4
2022-11-22T07:39:45.357Z,5.3
2022-11-22T07:40:45.563Z,5.3
2022-11-22T07:41:46.074Z,4.3
2022-11-22T07:42:46.404Z,5.1
2022-11-22T07:43:47.304Z,4.2
2022-11-22T07:44:47.229Z,4.3
2022-11-22T07:45:47.542Z,4.1
2022-11-22T07:46:48.060Z,4.5
2022-11-22T07:47:48.269Z,4.9
2022-11-22T07:48:49.916Z,4
2022-11-22T07:49:49.200Z,4.2
2022-11-22T07:50:49.622Z,5
2022-11-22T07:51:49.941Z,4.7
2022-11-22T07:53:53.536Z,4.2
2022-11-22T07:54:53.535Z,5
2022-11-22T07:55:53.442Z,4.7
2022-11-22T07:56:54.068Z,4.8
2022-11-22T07:57:54.890Z,4.5
2022-11-22T07:58:55.815Z,5.6
2022-11-22T07:59:55.205Z,5.5
2022-11-22T08:00:55.621Z,6.1
2022-11-22T08:01:56.313Z,5.8
2022-11-22T08:02:58.099Z,5.2
2022-11-22T08:03:57.496Z,5.1
2022-11-22T08:04:57.193Z,5.2
2022-11-22T08:07:02.168Z,5.6
2022-11-22T08:08:02.564Z,5.4
2022-11-22T08:09:03.045Z,5
2022-11-22T08:10:03.364Z,4.4
2022-11-22T08:11:04.191Z,5.3
2022-11-22T08:12:04.715Z,8.2
2022-11-22T08:13:04.605Z,7.8
2022-11-22T08:14:05.029Z,7.2
2022-11-22T08:15:06.153Z,5.4
2022-11-22T08:16:08.642Z,5.8
2022-11-22T08:17:06.784Z,4.9
2022-11-22T08:18:07.722Z,5.1
2022-11-22T08:19:07.631Z,6
2022-11-22T08:20:09.269Z,6.1
2022-11-22T08:21:12.468Z,7
2022-11-22T08:22:10.407Z,6.1
2022-11-22T08:23:10.925Z,5.7
2022-11-22T08:24:11.343Z,5.8
2022-11-22T08:25:11.671Z,5.3
2022-11-22T08:26:14.320Z,5.1
2022-11-22T08:27:12.389Z,5.2
2022-11-22T08:28:12.908Z,5.8
2022-11-22T08:29:14.456Z,4.5
2022-11-22T08:30:13.647Z,4.8
2022-11-22T08:31:17.018Z,4.6
2022-11-22T08:32:14.975Z,6.3
2022-11-22T08:33:15.083Z,5.7
2022-11-22T08:34:15.831Z,5.2
2022-11-22T08:35:16.429Z,6.1
2022-11-22T08:36:16.435Z,5.3
2022-11-22T08:37:17.053Z,5.1
2022-11-22T08:38:17.203Z,5
2022-11-22T08:39:17.391Z,5.6
2022-11-22T08:40:17.901Z,6.4
2022-11-22T08:41:18.515Z,5.6
2022-11-22T08:42:18.833Z,4.9
2022-11-22T08:43:19.345Z,4.8
2022-11-22T08:44:19.594Z,5.4
2022-11-22T08:45:19.874Z,5.7
2022-11-22T08:46:21.826Z,6.3
2022-11-22T08:47:20.717Z,4.8
2022-11-22T08:48:22.518Z,4.6
2022-11-22T08:49:21.642Z,4.7
2022-11-22T08:50:22.058Z,5.7
2022-11-22T08:51:22.482Z,6.4
2022-11-22T08:52:22.680Z,6.3
2022-11-22T08:53:25.533Z,9
2022-11-22T08:54:23.513Z,13
2022-11-22T08:55:23.931Z,14.2
2022-11-22T08:56:24.452Z,13.5
2022-11-22T08:57:25.414Z,8.4
2022-11-22T08:58:25.802Z,5
2022-11-22T08:59:26.214Z,5.1
2022-11-22T09:00:32.931Z,5.3
2022-11-22T09:01:31.395Z,5.1
2022-11-22T09:02:31.664Z,5.5
2022-11-22T09:03:32.189Z,6.8
2022-11-22T09:04:32.614Z,5.8
2022-11-22T09:05:33.175Z,6.9
2022-11-22T09:08:43.010Z,4.2
2022-11-22T09:09:42.581Z,7.1
2022-11-22T09:10:42.984Z,9.8
2022-11-22T09:11:43.192Z,7.2
2022-11-22T09:12:47.086Z,7
2022-11-22T09:13:45.253Z,8.9
2022-11-22T09:14:45.460Z,9.4
2022-11-22T09:15:45.781Z,13.4
2022-11-22T09:16:46.197Z,10.7
2022-11-22T09:17:46.613Z,12.6
2022-11-22T09:18:48.147Z,9.9
2022-11-22T09:19:47.333Z,12.2
2022-11-22T09:20:47.751Z,13.3
2022-11-22T09:21:47.969Z,7.3
2022-11-22T09:22:48.695Z,4.5
2022-11-22T09:23:51.274Z,6.2
2022-11-22T09:24:50.031Z,5.5
2022-11-22T09:26:54.557Z,5.8
2022-11-22T09:27:54.765Z,4.9
2022-11-22T09:28:57.136Z,5.2
2022-11-22T09:29:56.222Z,5.7
2022-11-22T09:31:58.990Z,4.4
2022-11-22T09:32:59.508Z,4.6
2022-11-22T09:33:59.919Z,4.4
2022-11-22T09:35:00.241Z,5.1
2022-11-22T09:37:01.663Z,5.6
2022-11-22T09:38:02.614Z,4.1
2022-11-22T09:39:02.825Z,4.5
2022-11-22T09:40:02.930Z,5.4
2022-11-22T09:56:42.056Z,4.3
2022-11-22T09:57:48.823Z,4.4
2022-11-22T09:59:49.969Z,3.8
2022-11-22T10:00:52.292Z,5.9
2022-11-22T10:05:05.762Z,3.8
2022-11-22T10:06:08.944Z,3.6
2022-11-22T10:07:16.267Z,4.1
2022-11-22T10:20:48.427Z,4.4
2022-11-22T10:21:42.116Z,2.5
2022-11-22T10:22:42.552Z,3.6
2022-11-22T10:23:44.582Z,3.8
2022-11-22T10:24:44.510Z,4.3
2022-11-22T10:25:51.968Z,3.3
2022-11-22T10:26:45.424Z,3.7
2022-11-22T10:27:49.321Z,3.9
2022-11-22T11:04:07.997Z,2.8
2022-11-22T11:05:11.501Z,3.9
2022-11-22T11:07:20.144Z,4.1
2022-11-22T11:08:54.403Z,4.7
2022-11-22T11:10:34.057Z,2.7
2022-11-22T11:11:26.569Z,4.2
2022-11-22T11:13:30.509Z,2.8
2022-11-22T11:16:37.759Z,3
2022-11-22T11:17:38.185Z,3.1
2022-11-22T11:20:42.821Z,3.6
2022-11-22T11:21:41.281Z,2.9
2022-11-22T11:23:44.269Z,4.3
2022-11-22T11:24:44.790Z,4.4
2022-11-22T11:25:47.055Z,3.4
2022-11-22T11:27:51.767Z,6.9
2022-11-22T11:28:50.368Z,7.1
2022-11-22T11:32:58.458Z,4
2022-11-22T11:35:05.226Z,2.7
2022-11-22T11:37:06.194Z,2.5
2022-11-22T11:43:20.634Z,2.5
2022-11-22T11:46:29.466Z,2.8
2022-11-22T11:49:27.532Z,3.5
2022-11-22T11:50:28.264Z,2.2
2022-11-22T11:51:37.890Z,3
2022-11-22T11:52:31.243Z,2.9
2022-11-22T11:53:31.661Z,3.1
2022-11-22T11:55:37.513Z,2.9
2022-11-22T11:58:43.275Z,2.4
2022-11-22T12:00:47.803Z,3.5
2022-11-22T12:02:48.127Z,4.6
2022-11-22T12:07:56.503Z,3.9
2022-11-22T12:08:57.466Z,3.5
2022-11-22T12:09:57.162Z,3.3
2022-11-22T12:11:03.528Z,2.9
2022-11-22T12:17:32.130Z,4.3
2022-11-22T12:25:16.511Z,2.8
2022-11-22T12:25:46.410Z,2.6
2022-11-22T12:26:44.486Z,2.1
2022-11-22T12:27:45.400Z,2.2
2022-11-22T12:28:45.724Z,2.1
2022-11-22T12:29:46.543Z,2.7
2022-11-22T12:30:52.603Z,3.7
2022-11-22T12:31:59.449Z,3
2022-11-22T12:33:59.361Z,2.4
2022-11-22T12:36:04.502Z,3.1
2022-11-22T12:37:15.975Z,2.9
2022-11-22T12:38:18.025Z,3.1
2022-11-22T12:39:12.721Z,3.2
2022-11-22T12:40:21.837Z,4.1
2022-11-22T12:41:17.936Z,3.8
2022-11-22T12:42:23.462Z,4
2022-11-22T12:44:21.854Z,4
2022-11-22T12:45:30.985Z,3.2
2022-11-22T12:46:29.245Z,2.6
2022-11-22T12:47:33.749Z,2.4
2022-11-22T12:49:42.383Z,2.3
2022-11-22T12:53:42.920Z,3.4
2022-11-22T13:06:11.453Z,5.5
2022-11-22T13:12:31.667Z,2.9
2022-11-22T13:14:40.693Z,2.4
2022-11-22T13:15:37.080Z,2.4
2022-11-22T13:16:35.273Z,2.4
2022-11-22T13:17:36.716Z,2.7
2022-11-22T13:18:40.307Z,15.8
2022-11-22T13:27:59.854Z,1.9
2022-11-22T13:28:58.495Z,2.4
2022-11-22T13:30:01.782Z,3.2
2022-11-22T13:33:06.317Z,3.3
2022-11-22T13:37:15.240Z,5
2022-11-22T13:38:17.610Z,2.7
2022-11-22T13:39:20.783Z,2.5
2022-11-22T13:42:29.008Z,3.6
2022-11-22T13:47:43.474Z,3.8
2022-11-22T13:49:49.012Z,4.7
2022-11-22T13:52:54.056Z,4.7
2022-11-22T14:32:24.717Z,2.8
2022-11-22T14:33:27.694Z,2.1
2022-11-22T14:34:28.067Z,2.5
2022-11-22T14:35:32.735Z,1.7
2022-11-22T14:36:30.887Z,2.7
2022-11-22T14:38:39.302Z,2.6
2022-11-22T14:40:41.667Z,2.6
2022-11-22T14:41:44.554Z,3.3
2022-11-22T14:42:47.333Z,4.8
2022-11-22T14:43:46.496Z,4.8
2022-11-22T14:44:47.633Z,4.9
2022-11-22T14:49:57.902Z,2.4
2022-11-22T14:51:59.278Z,4.6
2022-11-22T14:57:10.347Z,2.6
2022-11-22T15:00:22.754Z,2.8
2022-11-22T15:57:45.728Z,12.1
2022-11-22T15:58:50.576Z,7.1
2022-11-22T15:59:49.157Z,8
2022-11-22T16:00:49.053Z,6
2022-11-22T16:01:49.584Z,6.6
2022-11-22T16:02:53.578Z,9.3
2022-11-22T16:03:59.639Z,8.7
2022-11-22T16:06:05.855Z,8
2022-11-22T16:07:00.869Z,9
2022-11-22T16:08:05.893Z,8.8
2022-11-22T16:09:05.593Z,11.2
2022-11-22T16:11:07.550Z,8.9
2022-11-22T16:19:25.016Z,17
2022-11-22T16:21:29.949Z,11.4
2022-11-22T16:22:32.712Z,11.8
2022-11-22T16:23:32.613Z,11.4
2022-11-22T16:24:33.990Z,11.3
2022-11-22T16:25:34.167Z,11
2022-11-22T16:26:32.529Z,11
2022-11-22T16:27:33.161Z,12
2022-11-22T16:28:38.384Z,11.9
2022-11-22T16:29:36.854Z,9.8
2022-11-22T16:30:44.544Z,10.7
2022-11-22T16:31:40.688Z,8.5
2022-11-22T16:32:38.515Z,8.7
2022-11-22T16:33:39.140Z,9.5
2022-11-22T16:34:39.561Z,7.7
2022-11-22T16:35:40.374Z,8.3
2022-11-22T16:36:40.431Z,7.4
2022-11-22T16:37:48.192Z,7.9
2022-11-22T16:38:41.624Z,8.7
2022-11-22T16:39:41.760Z,8.6
2022-11-22T16:40:45.016Z,8.1
2022-11-22T16:41:43.077Z,8.1
2022-11-22T16:42:43.612Z,9
2022-11-22T16:43:43.804Z,8.9
2022-11-22T16:44:44.241Z,8.4
2022-11-22T16:45:44.945Z,7.7
2022-11-22T16:46:45.035Z,7.6
2022-11-22T16:47:54.204Z,9.9
2022-11-22T16:48:46.498Z,8.3
2022-11-22T16:49:49.994Z,8.6
2022-11-22T16:50:53.382Z,7.8
2022-11-22T16:51:52.664Z,7.5
2022-11-22T16:52:51.961Z,8.1
2022-11-22T16:53:53.601Z,9.1
2022-11-22T16:54:53.297Z,8.3
2022-11-22T16:55:54.428Z,8.9
2022-11-22T16:56:54.850Z,8.5
2022-11-22T16:57:55.260Z,9.3
2022-11-22T16:58:57.632Z,7.5
2022-11-22T16:59:56.032Z,10.1
2022-11-22T17:00:56.478Z,7.2
2022-11-22T17:01:56.843Z,9.3
2022-11-22T17:02:57.344Z,8.5
2022-11-22T17:03:58.167Z,7.3
2022-11-22T17:04:58.084Z,9.3
2022-11-22T17:05:58.278Z,9.3
2022-11-22T17:06:58.707Z,8.4
2022-11-22T17:07:59.084Z,7.7
2022-11-22T17:09:00.882Z,8.7
2022-11-22T17:09:59.957Z,7.8
2022-11-22T17:10:59.998Z,9
2022-11-22T17:12:00.782Z,9.1
2022-11-22T17:13:01.091Z,9
2022-11-22T17:14:01.817Z,9.3
2022-11-22T17:15:01.828Z,9
2022-11-22T17:16:02.156Z,8
2022-11-22T17:17:02.563Z,10.8
2022-11-22T17:18:02.667Z,8.3
2022-11-22T17:19:03.242Z,8
2022-11-22T17:20:04.065Z,8.5
2022-11-22T17:21:06.167Z,9
2022-11-22T17:22:04.294Z,9.9
2022-11-22T17:23:07.820Z,9.2
2022-11-22T17:24:14.016Z,8.5
2022-11-22T17:25:11.315Z,9.2
2022-11-22T17:26:11.328Z,8.7
2022-11-22T17:27:15.936Z,7.4
2022-11-22T17:28:13.793Z,8.2
2022-11-22T17:29:42.775Z,8.4
2022-11-22T17:30:18.620Z,6.8
2022-11-22T17:31:19.783Z,8.3
2022-11-22T17:32:19.345Z,9.8
2022-11-22T17:33:19.453Z,9.5
2022-11-22T17:34:19.973Z,9.7
2022-11-22T17:35:20.392Z,8.6
2022-11-22T17:37:25.116Z,9.4
2022-11-22T17:38:25.327Z,10
2022-11-22T17:39:25.745Z,7.5
2022-11-22T17:40:26.262Z,7.4
2022-11-22T17:41:27.391Z,8.3
2022-11-22T17:42:26.880Z,8.8
2022-11-22T17:43:27.299Z,9.1
2022-11-22T17:44:27.927Z,10.7
2022-11-22T17:45:28.753Z,11
2022-11-22T17:46:30.306Z,9.5
2022-11-22T17:47:28.886Z,11.8
2022-11-22T17:48:29.484Z,10.6
2022-11-22T17:49:29.807Z,10.8
2022-11-22T17:50:29.908Z,12
2022-11-22T17:51:31.422Z,8.6
2022-11-22T17:52:30.743Z,8.9
2022-11-22T17:53:31.158Z,9.2
2022-11-22T17:54:31.577Z,8.1
2022-11-22T17:55:48.470Z,8.4
2022-11-22T17:56:35.283Z,7.8
2022-11-22T17:57:35.589Z,8.4
2022-11-22T17:58:36.016Z,9.5
2022-11-22T17:59:36.430Z,8.5
2022-11-22T18:00:36.946Z,9.2
2022-11-22T18:01:37.156Z,10
2022-11-22T18:02:37.737Z,8.5
2022-11-22T18:03:38.564Z,8.4
2022-11-22T18:04:41.171Z,8.3
2022-11-22T18:05:39.129Z,10.9
2022-11-22T18:06:39.569Z,24
2022-11-22T18:07:40.115Z,38.9
2022-11-22T18:08:45.278Z,33.2
2022-11-22T18:09:44.781Z,17.4
2022-11-22T18:10:45.198Z,11
2022-11-22T18:11:45.512Z,11.1
2022-11-22T18:13:13.642Z,9.8
2022-11-22T18:13:49.212Z,8.7
2022-11-22T18:14:49.940Z,7.5
2022-11-22T18:15:56.270Z,7.3
2022-11-22T18:16:51.589Z,8.8
2022-11-22T18:17:52.209Z,7.7
2022-11-22T18:18:57.109Z,9.4
2022-11-22T18:19:56.015Z,8.5
2022-11-22T18:20:57.043Z,8.6
2022-11-22T18:21:56.734Z,7.9
2022-11-22T18:22:57.256Z,7.5
2022-11-22T18:23:59.125Z,8.7
2022-11-22T18:24:57.997Z,7.2
2022-11-22T18:26:38.232Z,7.5
2022-11-22T18:26:59.407Z,7.6
2022-11-22T18:28:00.073Z,8.9
2022-11-22T18:29:38.640Z,10.5
2022-11-22T18:30:03.048Z,10.6
2022-11-22T18:31:03.657Z,10.5
2022-11-22T18:32:04.190Z,9.1
2022-11-22T18:33:05.309Z,8.8
2022-11-22T18:34:04.404Z,8.7
2022-11-22T18:35:05.423Z,8.1
2022-11-22T18:36:45.617Z,8.3
2022-11-22T18:37:05.464Z,8
2022-11-22T18:38:06.269Z,9.2
2022-11-22T18:39:06.403Z,8.5
2022-11-22T18:40:07.935Z,8
2022-11-22T18:41:07.207Z,10.4
2022-11-22T18:42:09.155Z,10.4
2022-11-22T18:43:07.484Z,10.4
2022-11-22T18:44:09.967Z,10.7
2022-11-22T18:45:09.693Z,10.1
2022-11-22T18:46:08.673Z,9.6
2022-11-22T18:47:10.051Z,10.7
2022-11-22T18:48:09.854Z,10.5
2022-11-22T18:49:10.330Z,9.4
2022-11-22T18:50:12.260Z,10.1
2022-11-22T18:51:11.274Z,8.1
2022-11-22T18:52:14.879Z,8.6
2022-11-22T18:53:14.766Z,7.4
2022-11-22T18:54:14.991Z,8.1
2022-11-22T18:55:15.801Z,8.7
2022-11-22T18:56:15.914Z,8.9
2022-11-22T18:57:16.330Z,8.4
2022-11-22T18:58:16.749Z,7.8
2022-11-22T18:59:17.065Z,8.3
2022-11-22T19:00:18.505Z,7.6
2022-11-22T19:01:20.731Z,8.5
2022-11-22T19:02:18.950Z,7.4
2022-11-22T19:03:19.229Z,8.5
2022-11-22T19:04:19.548Z,7.7
2022-11-22T19:05:24.333Z,8.1
2022-11-22T19:06:22.630Z,7.4